sensor_id;sensor_type;location;lat;lon;timestamp;pressure;altitude;pressure_sealevel;temperature;humidity
71149;BME280;59072;42.144;25.200;2024-03-23T00:53:59;100296.47;;;5.38;73.51
71149;BME280;59072;42.144;25.200;2024-03-23T00:56:24;100274.81;;;5.19;73.88
71149;BME280;59072;42.144;25.200;2024-03-23T00:58:50;100283.19;;;5.23;74.03
71149;BME280;59072;42.144;25.200;2024-03-23T01:01:15;100240.19;;;4.91;74.58
71149;BME280;59072;42.144;25.200;2024-03-23T01:03:41;100261.75;;;5.18;74.70
71149;BME280;59072;42.144;25.200;2024-03-23T01:06:06;100246.38;;;5.21;73.37
71149;BME280;59072;42.144;25.200;2024-03-23T01:08:32;100277.38;;;5.04;75.70
71149;BME280;59072;42.144;25.200;2024-03-23T01:10:59;100270.88;;;4.92;77.08
71149;BME280;59072;42.144;25.200;2024-03-23T01:13:25;100262.63;;;4.72;78.33
71149;BME280;59072;42.144;25.200;2024-03-23T01:15:51;100225.97;;;4.69;76.31
71149;BME280;59072;42.144;25.200;2024-03-23T01:18:18;100266.84;;;4.81;77.71
71149;BME280;59072;42.144;25.200;2024-03-23T01:20:44;100264.13;;;4.90;77.28
71149;BME280;59072;42.144;25.200;2024-03-23T01:23:10;100259.50;;;4.92;76.74
71149;BME280;59072;42.144;25.200;2024-03-23T01:25:35;100236.31;;;4.79;76.12
71149;BME280;59072;42.144;25.200;2024-03-23T01:28:01;100240.28;;;4.98;75.39
71149;BME280;59072;42.144;25.200;2024-03-23T01:30:34;100274.56;;;5.06;75.86
71149;BME280;59072;42.144;25.200;2024-03-23T01:33:00;100258.72;;;4.83;77.42
71149;BME280;59072;42.144;25.200;2024-03-23T01:35:26;100273.38;;;5.09;76.96
71149;BME280;59072;42.144;25.200;2024-03-23T01:37:51;100240.84;;;5.08;75.06
71149;BME280;59072;42.144;25.200;2024-03-23T01:40:17;100212.81;;;4.61;75.39
71149;BME280;59072;42.144;25.200;2024-03-23T01:42:42;100274.22;;;4.63;79.00
71149;BME280;59072;42.144;25.200;2024-03-23T01:45:08;100274.78;;;4.27;82.42
71149;BME280;59072;42.144;25.200;2024-03-23T01:47:35;100249.75;;;4.15;79.95
71149;BME280;59072;42.144;25.200;2024-03-23T01:50:01;100249.66;;;4.31;79.22
71149;BME280;59072;42.144;25.200;2024-03-23T01:52:26;100212.66;;;4.39;77.86
71149;BME280;59072;42.144;25.200;2024-03-23T01:54:52;100224.50;;;4.43;77.33
71149;BME280;59072;42.144;25.200;2024-03-23T01:57:19;100254.25;;;4.83;75.98
71149;BME280;59072;42.144;25.200;2024-03-23T01:59:45;100260.63;;;4.43;78.68
71149;BME280;59072;42.144;25.200;2024-03-23T02:02:11;100268.56;;;4.12;80.33
71149;BME280;59072;42.144;25.200;2024-03-23T02:04:36;100266.81;;;4.35;78.46
71149;BME280;59072;42.144;25.200;2024-03-23T02:07:01;100253.25;;;4.38;77.36
71149;BME280;59072;42.144;25.200;2024-03-23T02:09:28;100241.78;;;4.23;77.90
71149;BME280;59072;42.144;25.200;2024-03-23T02:11:54;100251.41;;;4.39;77.71
71149;BME280;59072;42.144;25.200;2024-03-23T02:14:19;100223.28;;;3.92;79.63
71149;BME280;59072;42.144;25.200;2024-03-23T02:16:45;100285.88;;;3.58;83.32
71149;BME280;59072;42.144;25.200;2024-03-23T02:19:12;100271.38;;;3.46;83.54
71149;BME280;59072;42.144;25.200;2024-03-23T02:21:37;100270.13;;;3.90;82.90
71149;BME280;59072;42.144;25.200;2024-03-23T02:24:03;100258.06;;;3.95;80.99
71149;BME280;59072;42.144;25.200;2024-03-23T02:26:28;100278.63;;;3.60;84.65
71149;BME280;59072;42.144;25.200;2024-03-23T02:28:53;100237.97;;;3.94;81.87
71149;BME280;59072;42.144;25.200;2024-03-23T02:31:19;100283.06;;;4.16;80.83
71149;BME280;59072;42.144;25.200;2024-03-23T02:33:44;100268.59;;;4.03;80.44
71149;BME280;59072;42.144;25.200;2024-03-23T02:36:10;100215.66;;;3.57;80.08
71149;BME280;59072;42.144;25.200;2024-03-23T02:38:35;100241.06;;;3.50;82.80
71149;BME280;59072;42.144;25.200;2024-03-23T02:41:03;100286.00;;;3.65;83.31
71149;BME280;59072;42.144;25.200;2024-03-23T02:43:29;100269.06;;;3.51;84.41
71149;BME280;59072;42.144;25.200;2024-03-23T02:45:54;100278.19;;;3.96;81.35
71149;BME280;59072;42.144;25.200;2024-03-23T02:48:19;100273.94;;;3.87;81.77
71149;BME280;59072;42.144;25.200;2024-03-23T02:50:45;100262.75;;;3.77;80.69
71149;BME280;59072;42.144;25.200;2024-03-23T02:53:10;100281.09;;;3.54;83.63
71149;BME280;59072;42.144;25.200;2024-03-23T02:55:36;100274.50;;;3.58;81.95
71149;BME280;59072;42.144;25.200;2024-03-23T02:58:01;100249.03;;;2.93;84.45
71149;BME280;59072;42.144;25.200;2024-03-23T03:00:28;100279.63;;;3.27;83.23
71149;BME280;59072;42.144;25.200;2024-03-23T03:02:53;100260.19;;;3.36;81.46
71149;BME280;59072;42.144;25.200;2024-03-23T03:05:19;100254.94;;;3.19;81.20
71149;BME280;59072;42.144;25.200;2024-03-23T03:07:44;100236.16;;;2.98;82.08
71149;BME280;59072;42.144;25.200;2024-03-23T03:10:09;100253.47;;;3.00;80.92
71149;BME280;59072;42.144;25.200;2024-03-23T03:12:36;100263.03;;;3.10;81.94
71149;BME280;59072;42.144;25.200;2024-03-23T03:15:03;100225.81;;;2.88;82.15
71149;BME280;59072;42.144;25.200;2024-03-23T03:17:30;100277.34;;;2.91;84.31
71149;BME280;59072;42.144;25.200;2024-03-23T03:19:55;100250.66;;;2.69;86.67
71149;BME280;59072;42.144;25.200;2024-03-23T03:22:24;100278.94;;;2.67;89.07
71149;BME280;59072;42.144;25.200;2024-03-23T03:24:49;100259.88;;;2.90;86.71
71149;BME280;59072;42.144;25.200;2024-03-23T03:27:15;100254.97;;;2.95;87.12
71149;BME280;59072;42.144;25.200;2024-03-23T03:29:40;100266.47;;;2.94;86.57
71149;BME280;59072;42.144;25.200;2024-03-23T03:32:06;100271.06;;;2.75;87.96
71149;BME280;59072;42.144;25.200;2024-03-23T03:34:31;100247.19;;;2.69;87.46
71149;BME280;59072;42.144;25.200;2024-03-23T03:36:57;100241.41;;;2.49;88.67
71149;BME280;59072;42.144;25.200;2024-03-23T03:39:23;100268.78;;;3.13;86.36
71149;BME280;59072;42.144;25.200;2024-03-23T03:41:49;100282.00;;;2.30;89.51
71149;BME280;59072;42.144;25.200;2024-03-23T03:44:14;100275.38;;;1.83;93.71
71149;BME280;59072;42.144;25.200;2024-03-23T03:46:40;100267.63;;;2.16;91.80
71149;BME280;59072;42.144;25.200;2024-03-23T03:49:05;100258.09;;;2.07;90.94
71149;BME280;59072;42.144;25.200;2024-03-23T03:51:31;100263.22;;;2.25;89.60
71149;BME280;59072;42.144;25.200;2024-03-23T03:53:56;100257.88;;;2.51;87.55
71149;BME280;59072;42.144;25.200;2024-03-23T03:56:21;100240.75;;;2.55;86.20
71149;BME280;59072;42.144;25.200;2024-03-23T03:58:48;100295.34;;;2.36;90.24
71149;BME280;59072;42.144;25.200;2024-03-23T04:01:13;100288.84;;;2.81;86.61
71149;BME280;59072;42.144;25.200;2024-03-23T04:03:39;100241.72;;;2.29;87.83
71149;BME280;59072;42.144;25.200;2024-03-23T04:06:09;100270.13;;;1.83;91.14
71149;BME280;59072;42.144;25.200;2024-03-23T04:08:34;100267.94;;;1.70;93.37
71149;BME280;59072;42.144;25.200;2024-03-23T04:10:59;100270.47;;;2.31;88.48
71149;BME280;59072;42.144;25.200;2024-03-23T04:13:25;100280.09;;;2.65;86.84
71149;BME280;59072;42.144;25.200;2024-03-23T04:15:54;100297.38;;;2.67;87.21
71149;BME280;59072;42.144;25.200;2024-03-23T04:18:20;100285.16;;;2.33;87.82
71149;BME280;59072;42.144;25.200;2024-03-23T04:20:47;100293.13;;;2.15;89.86
71149;BME280;59072;42.144;25.200;2024-03-23T04:23:12;100297.63;;;2.31;88.38
71149;BME280;59072;42.144;25.200;2024-03-23T04:25:37;100299.25;;;2.24;89.57
71149;BME280;59072;42.144;25.200;2024-03-23T04:28:03;100307.00;;;2.34;90.36
71149;BME280;59072;42.144;25.200;2024-03-23T04:30:29;100285.16;;;2.41;91.14
71149;BME280;59072;42.144;25.200;2024-03-23T04:32:55;100280.22;;;2.47;90.59
71149;BME280;59072;42.144;25.200;2024-03-23T04:35:22;100296.03;;;2.47;92.23
71149;BME280;59072;42.144;25.200;2024-03-23T04:37:50;100287.94;;;2.32;94.39
71149;BME280;59072;42.144;25.200;2024-03-23T04:40:17;100296.41;;;2.68;92.09
71149;BME280;59072;42.144;25.200;2024-03-23T04:42:43;100286.69;;;2.60;93.16
71149;BME280;59072;42.144;25.200;2024-03-23T04:45:08;100266.78;;;2.58;92.83
71149;BME280;59072;42.144;25.200;2024-03-23T04:47:34;100301.88;;;2.83;92.24
71149;BME280;59072;42.144;25.200;2024-03-23T04:50:01;100301.31;;;2.63;92.34
71149;BME280;59072;42.144;25.200;2024-03-23T04:52:27;100295.44;;;2.77;91.41
71149;BME280;59072;42.144;25.200;2024-03-23T04:54:52;100284.91;;;2.86;90.63
71149;BME280;59072;42.144;25.200;2024-03-23T04:57:18;100276.19;;;2.77;90.71
71149;BME280;59072;42.144;25.200;2024-03-23T04:59:43;100276.34;;;2.92;88.35
71149;BME280;59072;42.144;25.200;2024-03-23T05:02:09;100290.69;;;3.14;87.82
71149;BME280;59072;42.144;25.200;2024-03-23T05:04:35;100301.88;;;3.08;88.59
71149;BME280;59072;42.144;25.200;2024-03-23T05:07:02;100296.63;;;2.99;89.43
71149;BME280;59072;42.144;25.200;2024-03-23T05:09:27;100232.41;;;2.92;88.82
71149;BME280;59072;42.144;25.200;2024-03-23T05:11:55;100301.03;;;3.56;87.13
71149;BME280;59072;42.144;25.200;2024-03-23T05:14:20;100294.78;;;3.08;89.63
71149;BME280;59072;42.144;25.200;2024-03-23T05:16:46;100305.19;;;3.34;89.46
71149;BME280;59072;42.144;25.200;2024-03-23T05:19:11;100275.19;;;3.44;88.17
71149;BME280;59072;42.144;25.200;2024-03-23T05:21:37;100271.38;;;3.46;87.71
71149;BME280;59072;42.144;25.200;2024-03-23T05:24:02;100293.66;;;3.44;90.72
71149;BME280;59072;42.144;25.200;2024-03-23T05:26:28;100312.19;;;3.83;88.78
71149;BME280;59072;42.144;25.200;2024-03-23T05:28:54;100301.63;;;3.91;86.85
71149;BME280;59072;42.144;25.200;2024-03-23T05:31:26;100314.22;;;4.20;86.71
71149;BME280;59072;42.144;25.200;2024-03-23T05:33:52;100283.06;;;3.60;87.62
71149;BME280;59072;42.144;25.200;2024-03-23T05:36:18;100269.66;;;3.78;85.18
71149;BME280;59072;42.144;25.200;2024-03-23T05:38:44;100304.88;;;4.01;86.73
71149;BME280;59072;42.144;25.200;2024-03-23T05:41:09;100321.94;;;4.30;86.64
71149;BME280;59072;42.144;25.200;2024-03-23T05:43:35;100313.75;;;4.79;81.14
71149;BME280;59072;42.144;25.200;2024-03-23T05:46:01;100281.88;;;4.18;85.40
71149;BME280;59072;42.144;25.200;2024-03-23T05:48:36;100284.06;;;4.15;86.01
71149;BME280;59072;42.144;25.200;2024-03-23T05:51:01;100297.88;;;4.56;85.07
71149;BME280;59072;42.144;25.200;2024-03-23T05:53:28;100313.22;;;4.84;85.00
71149;BME280;59072;42.144;25.200;2024-03-23T05:56:03;100316.69;;;4.53;85.54
71149;BME280;59072;42.144;25.200;2024-03-23T05:58:29;100305.03;;;4.48;83.83
71149;BME280;59072;42.144;25.200;2024-03-23T06:00:58;100280.91;;;4.74;81.09
71149;BME280;59072;42.144;25.200;2024-03-23T06:03:29;100315.66;;;4.62;84.06
71149;BME280;59072;42.144;25.200;2024-03-23T06:05:55;100318.66;;;4.59;86.12
71149;BME280;59072;42.144;25.200;2024-03-23T06:08:21;100296.53;;;4.60;86.02
71149;BME280;59072;42.144;25.200;2024-03-23T06:10:47;100299.00;;;4.62;88.15
71149;BME280;59072;42.144;25.200;2024-03-23T06:13:13;100252.97;;;4.79;86.78
71149;BME280;59072;42.144;25.200;2024-03-23T06:15:39;100310.25;;;5.48;81.82
71149;BME280;59072;42.144;25.200;2024-03-23T06:18:04;100302.91;;;5.73;81.08
71149;BME280;59072;42.144;25.200;2024-03-23T06:20:30;100297.19;;;5.99;80.94
71149;BME280;59072;42.144;25.200;2024-03-23T06:22:56;100293.22;;;5.66;82.13
71149;BME280;59072;42.144;25.200;2024-03-23T06:25:22;100275.78;;;5.56;83.80
71149;BME280;59072;42.144;25.200;2024-03-23T06:27:47;100290.94;;;5.92;82.30
71149;BME280;59072;42.144;25.200;2024-03-23T06:30:13;100265.78;;;5.96;81.94
71149;BME280;59072;42.144;25.200;2024-03-23T06:32:38;100270.88;;;6.28;80.10
71149;BME280;59072;42.144;25.200;2024-03-23T06:35:04;100288.41;;;6.14;79.24
71149;BME280;59072;42.144;25.200;2024-03-23T06:37:36;100302.63;;;6.79;78.81
71149;BME280;59072;42.144;25.200;2024-03-23T06:40:02;100254.34;;;6.62;77.99
71149;BME280;59072;42.144;25.200;2024-03-23T06:42:29;100274.69;;;7.04;77.20
71149;BME280;59072;42.144;25.200;2024-03-23T06:44:55;100297.41;;;7.35;75.38
71149;BME280;59072;42.144;25.200;2024-03-23T06:47:20;100283.28;;;7.56;75.85
71149;BME280;59072;42.144;25.200;2024-03-23T06:49:46;100289.06;;;7.67;74.08
71149;BME280;59072;42.144;25.200;2024-03-23T06:52:11;100292.09;;;7.98;73.74
71149;BME280;59072;42.144;25.200;2024-03-23T06:54:36;100292.44;;;7.54;71.44
71149;BME280;59072;42.144;25.200;2024-03-23T06:57:02;100298.75;;;7.81;71.04
71149;BME280;59072;42.144;25.200;2024-03-23T06:59:28;100267.88;;;7.73;70.57
71149;BME280;59072;42.144;25.200;2024-03-23T07:01:53;100301.19;;;8.52;64.67
71149;BME280;59072;42.144;25.200;2024-03-23T07:04:19;100302.25;;;8.71;64.07
71149;BME280;59072;42.144;25.200;2024-03-23T07:06:45;100284.88;;;8.20;67.32
71149;BME280;59072;42.144;25.200;2024-03-23T07:09:11;100300.97;;;8.54;67.91
71149;BME280;59072;42.144;25.200;2024-03-23T07:11:36;100279.94;;;8.72;64.70
71149;BME280;59072;42.144;25.200;2024-03-23T07:14:02;100296.31;;;8.62;63.88
71149;BME280;59072;42.144;25.200;2024-03-23T07:16:28;100288.56;;;8.19;66.99
71149;BME280;59072;42.144;25.200;2024-03-23T07:18:54;100282.84;;;8.77;65.03
71149;BME280;59072;42.144;25.200;2024-03-23T07:21:19;100270.38;;;8.98;64.50
71149;BME280;59072;42.144;25.200;2024-03-23T07:23:45;100253.22;;;9.34;65.00
71149;BME280;59072;42.144;25.200;2024-03-23T07:26:11;100279.16;;;9.65;64.36
71149;BME280;59072;42.144;25.200;2024-03-23T07:28:37;100289.22;;;9.36;63.54
71149;BME280;59072;42.144;25.200;2024-03-23T07:31:07;100287.34;;;9.70;63.99
71149;BME280;59072;42.144;25.200;2024-03-23T07:33:37;100292.50;;;9.58;63.67
71149;BME280;59072;42.144;25.200;2024-03-23T07:36:03;100263.81;;;9.60;62.34
71149;BME280;59072;42.144;25.200;2024-03-23T07:38:29;100269.09;;;9.74;61.06
71149;BME280;59072;42.144;25.200;2024-03-23T07:43:29;100267.63;;;9.98;59.81
71149;BME280;59072;42.144;25.200;2024-03-23T07:45:54;100276.56;;;10.30;58.89
71149;BME280;59072;42.144;25.200;2024-03-23T07:48:23;100288.41;;;10.79;57.24
71149;BME280;59072;42.144;25.200;2024-03-23T07:51:10;100292.94;;;10.72;57.11
71149;BME280;59072;42.144;25.200;2024-03-23T07:53:37;100280.13;;;10.88;57.95
71149;BME280;59072;42.144;25.200;2024-03-23T07:56:05;100271.00;;;11.02;58.46
71149;BME280;59072;42.144;25.200;2024-03-23T07:58:31;100280.31;;;11.43;55.68
71149;BME280;59072;42.144;25.200;2024-03-23T08:01:12;100252.94;;;11.04;55.85
71149;BME280;59072;42.144;25.200;2024-03-23T08:03:41;100274.06;;;11.31;57.46
71149;BME280;59072;42.144;25.200;2024-03-23T08:06:17;100225.19;;;11.30;53.53
71149;BME280;59072;42.144;25.200;2024-03-23T08:08:46;100267.06;;;11.55;53.73
71149;BME280;59072;42.144;25.200;2024-03-23T08:11:12;100275.66;;;11.38;53.50
71149;BME280;59072;42.144;25.200;2024-03-23T08:13:42;100268.78;;;11.24;51.91
71149;BME280;59072;42.144;25.200;2024-03-23T08:16:07;100243.97;;;11.60;53.06
71149;BME280;59072;42.144;25.200;2024-03-23T08:18:34;100253.16;;;11.46;52.95
71149;BME280;59072;42.144;25.200;2024-03-23T08:21:03;100265.06;;;11.69;55.11
71149;BME280;59072;42.144;25.200;2024-03-23T08:23:35;100266.75;;;12.06;51.42
71149;BME280;59072;42.144;25.200;2024-03-23T08:26:09;100247.97;;;12.13;54.08
71149;BME280;59072;42.144;25.200;2024-03-23T08:28:35;100263.25;;;11.88;55.83
71149;BME280;59072;42.144;25.200;2024-03-23T08:31:03;100251.69;;;11.94;55.55
71149;BME280;59072;42.144;25.200;2024-03-23T08:33:30;100245.31;;;12.43;53.38
71149;BME280;59072;42.144;25.200;2024-03-23T08:35:57;100238.38;;;12.24;54.05
71149;BME280;59072;42.144;25.200;2024-03-23T08:38:23;100253.88;;;12.34;54.64
71149;BME280;59072;42.144;25.200;2024-03-23T08:41:00;100238.34;;;12.42;53.64
71149;BME280;59072;42.144;25.200;2024-03-23T08:43:26;100255.19;;;12.73;53.37
71149;BME280;59072;42.144;25.200;2024-03-23T08:45:52;100210.28;;;12.75;50.13
71149;BME280;59072;42.144;25.200;2024-03-23T08:48:19;100253.28;;;13.04;49.98
71149;BME280;59072;42.144;25.200;2024-03-23T08:50:46;100217.16;;;12.83;53.78
71149;BME280;59072;42.144;25.200;2024-03-23T08:53:11;100246.50;;;13.01;49.93
71149;BME280;59072;42.144;25.200;2024-03-23T08:55:37;100251.81;;;13.20;48.35
71149;BME280;59072;42.144;25.200;2024-03-23T08:58:02;100239.09;;;13.62;46.58
71149;BME280;59072;42.144;25.200;2024-03-23T09:00:29;100238.28;;;13.74;50.50
71149;BME280;59072;42.144;25.200;2024-03-23T09:02:55;100194.53;;;13.33;52.15
71149;BME280;59072;42.144;25.200;2024-03-23T09:05:20;100215.91;;;13.80;48.78
71149;BME280;59072;42.144;25.200;2024-03-23T09:07:46;100211.41;;;13.57;49.60
71149;BME280;59072;42.144;25.200;2024-03-23T09:10:11;100203.47;;;13.62;49.70
71149;BME280;59072;42.144;25.200;2024-03-23T09:12:37;100189.25;;;13.61;49.12
71149;BME280;59072;42.144;25.200;2024-03-23T09:15:02;100198.91;;;14.43;48.69
71149;BME280;59072;42.144;25.200;2024-03-23T09:17:28;100199.47;;;14.45;47.02
71149;BME280;59072;42.144;25.200;2024-03-23T09:19:53;100186.59;;;14.76;49.66
71149;BME280;59072;42.144;25.200;2024-03-23T09:22:19;100165.22;;;14.36;48.03
71149;BME280;59072;42.144;25.200;2024-03-23T09:24:44;100174.41;;;14.85;47.73
71149;BME280;59072;42.144;25.200;2024-03-23T09:27:09;100164.66;;;14.79;44.85
71149;BME280;59072;42.144;25.200;2024-03-23T09:29:35;100171.56;;;14.75;44.69
71149;BME280;59072;42.144;25.200;2024-03-23T09:32:00;100182.56;;;15.30;44.35
71149;BME280;59072;42.144;25.200;2024-03-23T09:34:26;100162.44;;;15.49;42.77
71149;BME280;59072;42.144;25.200;2024-03-23T09:36:52;100160.75;;;15.43;46.78
71149;BME280;59072;42.144;25.200;2024-03-23T09:39:17;100171.63;;;15.53;44.34
71149;BME280;59072;42.144;25.200;2024-03-23T09:41:43;100146.91;;;15.56;44.27
71149;BME280;59072;42.144;25.200;2024-03-23T09:44:09;100172.16;;;15.94;44.17
71149;BME280;59072;42.144;25.200;2024-03-23T09:46:34;100133.97;;;15.97;43.95
71149;BME280;59072;42.144;25.200;2024-03-23T09:49:02;100145.50;;;16.20;41.28
71149;BME280;59072;42.144;25.200;2024-03-23T09:51:29;100163.69;;;16.35;40.81
71149;BME280;59072;42.144;25.200;2024-03-23T09:53:55;100145.25;;;16.81;39.23
71149;BME280;59072;42.144;25.200;2024-03-23T09:56:21;100159.97;;;16.73;40.33
71149;BME280;59072;42.144;25.200;2024-03-23T09:58:46;100143.56;;;16.42;43.11
71149;BME280;59072;42.144;25.200;2024-03-23T10:01:12;100140.41;;;16.83;39.93
71149;BME280;59072;42.144;25.200;2024-03-23T10:03:47;100113.47;;;16.51;39.92
71149;BME280;59072;42.144;25.200;2024-03-23T10:06:12;100141.72;;;16.80;39.65
71149;BME280;59072;42.144;25.200;2024-03-23T10:08:38;100132.91;;;16.85;40.06
71149;BME280;59072;42.144;25.200;2024-03-23T10:11:16;100112.25;;;17.01;39.42
71149;BME280;59072;42.144;25.200;2024-03-23T10:13:43;100095.34;;;16.73;40.26
71149;BME280;59072;42.144;25.200;2024-03-23T10:16:09;100130.28;;;17.43;36.62
71149;BME280;59072;42.144;25.200;2024-03-23T10:18:39;100102.88;;;17.09;35.47
71149;BME280;59072;42.144;25.200;2024-03-23T10:21:09;100093.00;;;17.30;34.02
71149;BME280;59072;42.144;25.200;2024-03-23T10:23:40;100107.75;;;17.70;35.56
71149;BME280;59072;42.144;25.200;2024-03-23T10:26:18;100099.25;;;18.39;35.18
71149;BME280;59072;42.144;25.200;2024-03-23T10:31:30;100093.81;;;18.09;35.21
71149;BME280;59072;42.144;25.200;2024-03-23T10:33:55;100077.59;;;17.93;35.24
71149;BME280;59072;42.144;25.200;2024-03-23T10:36:22;100044.69;;;17.96;34.49
71149;BME280;59072;42.144;25.200;2024-03-23T10:38:49;100078.13;;;18.77;31.98
71149;BME280;59072;42.144;25.200;2024-03-23T10:41:15;100059.44;;;19.17;32.77
71149;BME280;59072;42.144;25.200;2024-03-23T10:43:41;100072.88;;;19.32;29.01
71149;BME280;59072;42.144;25.200;2024-03-23T10:46:08;100060.53;;;19.71;29.86
71149;BME280;59072;42.144;25.200;2024-03-23T10:48:34;100054.84;;;19.07;29.15
71149;BME280;59072;42.144;25.200;2024-03-23T10:51:00;100028.38;;;19.04;30.27
71149;BME280;59072;42.144;25.200;2024-03-23T10:53:27;100047.19;;;19.30;29.59
71149;BME280;59072;42.144;25.200;2024-03-23T10:55:55;100043.19;;;19.77;30.23
71149;BME280;59072;42.144;25.200;2024-03-23T10:58:47;100040.00;;;19.59;28.47
71149;BME280;59072;42.144;25.200;2024-03-23T11:01:12;100056.38;;;19.28;29.19
71149;BME280;59072;42.144;25.200;2024-03-23T11:03:39;100059.97;;;19.14;25.25
71149;BME280;59072;42.144;25.200;2024-03-23T11:06:06;100050.91;;;18.43;25.57
71149;BME280;59072;42.144;25.200;2024-03-23T11:08:39;100031.16;;;18.68;26.34
71149;BME280;59072;42.144;25.200;2024-03-23T11:11:16;100005.78;;;18.59;25.53
71149;BME280;59072;42.144;25.200;2024-03-23T11:13:43;100038.13;;;19.00;24.27
71149;BME280;59072;42.144;25.200;2024-03-23T11:16:27;100038.25;;;19.34;21.31
71149;BME280;59072;42.144;25.200;2024-03-23T11:19:35;100046.34;;;19.94;20.32
71149;BME280;59072;42.144;25.200;2024-03-23T11:22:02;100003.16;;;19.68;20.79
71149;BME280;59072;42.144;25.200;2024-03-23T11:24:28;99991.63;;;19.97;23.25
71149;BME280;59072;42.144;25.200;2024-03-23T11:26:53;99996.91;;;19.78;21.49
71149;BME280;59072;42.144;25.200;2024-03-23T11:29:19;100008.81;;;20.12;23.35
71149;BME280;59072;42.144;25.200;2024-03-23T11:31:48;99994.38;;;20.51;22.17
71149;BME280;59072;42.144;25.200;2024-03-23T11:34:18;99993.19;;;20.33;23.01
71149;BME280;59072;42.144;25.200;2024-03-23T11:36:44;99981.91;;;20.79;23.85
71149;BME280;59072;42.144;25.200;2024-03-23T11:39:17;99972.16;;;20.54;24.60
71149;BME280;59072;42.144;25.200;2024-03-23T11:41:47;99960.03;;;21.56;23.46
71149;BME280;59072;42.144;25.200;2024-03-23T11:44:25;99981.00;;;21.70;23.66
71149;BME280;59072;42.144;25.200;2024-03-23T11:46:51;99966.34;;;21.71;22.96
71149;BME280;59072;42.144;25.200;2024-03-23T11:49:26;99965.63;;;21.46;23.07
71149;BME280;59072;42.144;25.200;2024-03-23T11:51:53;99965.78;;;21.87;22.46
71149;BME280;59072;42.144;25.200;2024-03-23T11:54:26;99960.91;;;22.36;21.95
71149;BME280;59072;42.144;25.200;2024-03-23T11:59:41;99945.50;;;23.37;20.22
71149;BME280;59072;42.144;25.200;2024-03-23T12:02:08;99953.25;;;22.94;20.62
71149;BME280;59072;42.144;25.200;2024-03-23T12:04:33;99938.78;;;23.35;20.84
71149;BME280;59072;42.144;25.200;2024-03-23T12:07:18;99930.41;;;23.31;22.80
71149;BME280;59072;42.144;25.200;2024-03-23T12:09:44;99926.88;;;22.39;23.81
71149;BME280;59072;42.144;25.200;2024-03-23T12:12:15;99919.81;;;23.07;22.51
71149;BME280;59072;42.144;25.200;2024-03-23T12:14:45;99905.88;;;22.58;23.67
71149;BME280;59072;42.144;25.200;2024-03-23T12:17:14;99918.38;;;22.13;23.06
71149;BME280;59072;42.144;25.200;2024-03-23T12:19:41;99894.03;;;21.61;23.53
71149;BME280;59072;42.144;25.200;2024-03-23T12:22:10;99905.38;;;21.63;22.92
71149;BME280;59072;42.144;25.200;2024-03-23T12:24:35;99877.88;;;22.58;22.72
71149;BME280;59072;42.144;25.200;2024-03-23T12:27:05;99893.69;;;23.42;22.02
71149;BME280;59072;42.144;25.200;2024-03-23T12:29:31;99893.63;;;22.97;22.33
71149;BME280;59072;42.144;25.200;2024-03-23T12:31:59;99872.22;;;23.41;23.51
71149;BME280;59072;42.144;25.200;2024-03-23T12:34:25;99878.66;;;23.22;23.00
71149;BME280;59072;42.144;25.200;2024-03-23T12:36:51;99873.16;;;22.36;23.21
71149;BME280;59072;42.144;25.200;2024-03-23T12:39:16;99874.44;;;23.16;24.38
71149;BME280;59072;42.144;25.200;2024-03-23T12:41:41;99877.66;;;23.63;22.02
71149;BME280;59072;42.144;25.200;2024-03-23T12:44:07;99863.75;;;23.65;23.20
71149;BME280;59072;42.144;25.200;2024-03-23T12:46:34;99865.81;;;24.22;21.83
71149;BME280;59072;42.144;25.200;2024-03-23T12:49:00;99874.09;;;23.54;21.85
71149;BME280;59072;42.144;25.200;2024-03-23T12:51:25;99866.22;;;22.94;21.51
71149;BME280;59072;42.144;25.200;2024-03-23T12:53:50;99865.63;;;22.97;22.88
71149;BME280;59072;42.144;25.200;2024-03-23T12:56:16;99842.88;;;22.93;23.29
71149;BME280;59072;42.144;25.200;2024-03-23T12:58:42;99849.72;;;22.90;24.39
71149;BME280;59072;42.144;25.200;2024-03-23T13:01:07;99844.28;;;23.04;22.87
71149;BME280;59072;42.144;25.200;2024-03-23T13:03:32;99843.69;;;22.93;23.09
71149;BME280;59072;42.144;25.200;2024-03-23T13:05:58;99842.44;;;23.13;21.09
71149;BME280;59072;42.144;25.200;2024-03-23T13:08:23;99822.53;;;24.12;20.45
71149;BME280;59072;42.144;25.200;2024-03-23T13:10:52;99837.59;;;24.75;19.72
71149;BME280;59072;42.144;25.200;2024-03-23T13:13:17;99838.22;;;24.15;21.05
71149;BME280;59072;42.144;25.200;2024-03-23T13:15:49;99836.50;;;23.11;22.12
71149;BME280;59072;42.144;25.200;2024-03-23T13:18:15;99841.56;;;22.54;22.83
71149;BME280;59072;42.144;25.200;2024-03-23T13:20:40;99823.63;;;22.53;22.89
71149;BME280;59072;42.144;25.200;2024-03-23T13:23:05;99811.09;;;23.38;22.47
71149;BME280;59072;42.144;25.200;2024-03-23T13:25:31;99809.91;;;23.31;20.25
71149;BME280;59072;42.144;25.200;2024-03-23T13:27:56;99835.25;;;24.34;19.85
71149;BME280;59072;42.144;25.200;2024-03-23T13:30:22;99827.84;;;24.25;19.17
71149;BME280;59072;42.144;25.200;2024-03-23T13:32:47;99814.34;;;24.60;19.40
71149;BME280;59072;42.144;25.200;2024-03-23T13:35:12;99812.78;;;24.19;21.17
71149;BME280;59072;42.144;25.200;2024-03-23T13:37:38;99815.22;;;24.38;19.72
71149;BME280;59072;42.144;25.200;2024-03-23T13:40:03;99772.44;;;23.90;19.82
71149;BME280;59072;42.144;25.200;2024-03-23T13:42:29;99813.88;;;23.56;19.92
71149;BME280;59072;42.144;25.200;2024-03-23T13:44:54;99797.97;;;23.72;19.89
71149;BME280;59072;42.144;25.200;2024-03-23T13:47:20;99799.53;;;23.95;18.87